Time;durP1;ratioP1;P1;durP2;ratioP2;P2;SDS_P1;SDS_P2;PMS_P1;PMS_P2;Temp;Humidity;BMP_temperature;BMP_pressure;BME280_temperature;BME280_humidity;BME280_pressure;Samples;Min_cycle;Max_cycle;Signal;HPM_P1;HPM_P2
2022/11/09 00:01:36;;;;;;;5.40;2.67;;;;;;;11.94;100.00;99706.28;5062733;28;20498;-58
2022/11/09 00:04:05;;;;;;;16.07;2.80;;;;;;;12.05;100.00;99700.47;5064685;28;20503;-58
2022/11/09 00:06:33;;;;;;;4.97;1.93;;;;;;;12.18;100.00;99693.66;5058533;28;20473;-58
2022/11/09 00:09:01;;;;;;;3.37;1.10;;;;;;;12.48;100.00;99693.22;5057161;28;20490;-58
2022/11/09 00:11:33;;;;;;;1.33;1.03;;;;;;;12.59;100.00;99712.25;5060552;28;20446;-58
2022/11/09 00:13:59;;;;;;;1.93;1.33;;;;;;;12.67;100.00;99710.97;5064171;28;20455;-58
2022/11/09 00:16:25;;;;;;;1.83;1.73;;;;;;;12.63;100.00;99711.19;5061477;28;20523;-58
2022/11/09 00:18:52;;;;;;;5.60;1.50;;;;;;;12.58;100.00;99708.72;5057185;28;20455;-59
2022/11/09 00:21:23;;;;;;;7.70;1.00;;;;;;;12.53;100.00;99708.06;5059845;28;20517;-58
2022/11/09 00:23:51;;;;;;;2.00;1.90;;;;;;;12.40;100.00;99712.22;5040460;28;20481;-58
2022/11/09 00:26:18;;;;;;;2.50;2.30;;;;;;;12.27;100.00;99711.06;5050414;28;20563;-58
2022/11/09 00:28:45;;;;;;;1.10;1.00;;;;;;;12.43;100.00;99698.75;5063683;28;20454;-58
2022/11/09 00:31:16;;;;;;;20.03;1.17;;;;;;;12.67;100.00;99694.09;5061765;28;20883;-58
2022/11/09 00:33:45;;;;;;;2.10;0.93;;;;;;;12.88;100.00;99673.53;5063831;28;20447;-57
2022/11/09 00:36:12;;;;;;;0.60;0.50;;;;;;;13.10;100.00;99679.56;5063487;28;20539;-58
2022/11/09 00:38:39;;;;;;;0.70;0.60;;;;;;;13.42;100.00;99690.50;5044033;28;20479;-58
2022/11/09 00:41:08;;;;;;;1.17;0.90;;;;;;;13.37;100.00;99696.06;5056855;28;20463;-58
2022/11/09 00:43:35;;;;;;;0.70;0.60;;;;;;;13.38;100.00;99703.13;5044275;28;20507;-59
2022/11/09 00:46:01;;;;;;;0.50;0.50;;;;;;;13.29;100.00;99712.47;5056791;28;20474;-59
2022/11/09 00:48:28;;;;;;;0.40;0.30;;;;;;;13.39;100.00;99709.34;5062680;28;20455;-58
2022/11/09 00:50:56;;;;;;;0.50;0.50;;;;;;;13.27;100.00;99706.31;5063498;28;20527;-58
2022/11/09 00:53:23;;;;;;;0.57;0.57;;;;;;;13.17;100.00;99712.19;5057526;28;20946;-58
2022/11/09 00:56:05;;;;;;;1.13;1.03;;;;;;;13.17;100.00;99726.38;5056001;28;20485;-58
2022/11/09 00:58:34;;;;;;;1.13;1.03;;;;;;;12.93;100.00;99732.88;5058734;28;20455;-58
2022/11/09 01:01:08;;;;;;;3.87;2.40;;;;;;;12.86;100.00;99742.09;5063640;28;20458;-58
2022/11/09 01:03:34;;;;;;;13.50;3.13;;;;;;;12.76;100.00;99755.03;5061629;28;20450;-59
2022/11/09 01:06:01;;;;;;;8.43;2.83;;;;;;;12.69;100.00;99757.09;5056534;28;20500;-58
2022/11/09 01:08:28;;;;;;;2.27;2.17;;;;;;;12.67;100.00;99764.28;5057565;28;20454;-58
2022/11/09 01:10:54;;;;;;;3.43;3.10;;;;;;;12.66;100.00;99759.91;5062889;28;20450;-58
2022/11/09 01:13:21;;;;;;;3.97;3.23;;;;;;;12.62;100.00;99765.44;5062007;28;20484;-58
2022/11/09 01:15:50;;;;;;;19.67;2.20;;;;;;;12.68;100.00;99776.69;5055985;28;20471;-59
2022/11/09 01:18:19;;;;;;;2.43;2.33;;;;;;;12.67;100.00;99779.44;5056475;28;20455;-59
2022/11/09 01:20:48;;;;;;;2.70;2.50;;;;;;;12.59;100.00;99774.44;5061602;28;20539;-59
2022/11/09 01:23:16;;;;;;;6.60;2.93;;;;;;;12.58;100.00;99775.38;5040152;28;20495;-59
2022/11/09 01:25:43;;;;;;;1.87;1.63;;;;;;;12.67;100.00;99772.28;5049360;28;20450;-58
2022/11/09 01:28:10;;;;;;;1.87;1.77;;;;;;;12.63;100.00;99777.84;5062497;28;20461;-58
2022/11/09 01:30:40;;;;;;;6.37;1.60;;;;;;;12.66;100.00;99773.22;5057642;28;20798;-58
2022/11/09 01:33:08;;;;;;;1.23;1.17;;;;;;;12.73;100.00;99771.13;5065454;28;20450;-58
2022/11/09 01:35:37;;;;;;;1.13;0.80;;;;;;;12.78;100.00;99760.28;5057507;28;20813;-58
2022/11/09 01:38:05;;;;;;;7.03;1.40;;;;;;;12.74;100.00;99762.19;5055382;28;20508;-58
2022/11/09 01:40:34;;;;;;;1.30;1.20;;;;;;;12.84;100.00;99757.31;5060028;28;20501;-58
2022/11/09 01:43:21;;;;;;;0.83;0.83;;;;;;;12.81;100.00;99744.13;5061024;28;20908;-58
2022/11/09 01:46:21;;;;;;;0.70;0.60;;;;;;;12.83;100.00;99740.44;5061186;28;20449;-58
2022/11/09 01:48:54;;;;;;;0.70;0.70;;;;;;;12.91;100.00;99732.09;5058550;28;20931;-58
2022/11/09 01:51:37;;;;;;;0.83;0.60;;;;;;;12.99;100.00;99732.59;5062587;28;20500;-58
2022/11/09 01:54:14;;;;;;;0.60;0.60;;;;;;;13.20;100.00;99725.41;5061916;28;20887;-58
2022/11/09 01:56:42;;;;;;;1.00;0.90;;;;;;;13.24;100.00;99717.16;5057557;28;20513;-58
2022/11/09 01:59:16;;;;;;;0.97;0.50;;;;;;;13.36;100.00;99709.50;5056015;28;20512;-59
2022/11/09 02:01:44;;;;;;;1.37;1.27;;;;;;;13.50;100.00;99712.34;5059240;28;20453;-58
2022/11/09 02:04:16;;;;;;;0.50;0.50;;;;;;;13.70;100.00;99698.84;5062225;28;20568;-58
2022/11/09 02:06:43;;;;;;;1.27;1.17;;;;;;;13.61;100.00;99694.00;5049930;28;20899;-59
2022/11/09 02:09:29;;;;;;;9.43;1.07;;;;;;;13.69;100.00;99690.91;5053780;28;20892;-59
2022/11/09 02:11:56;;;;;;;0.60;0.40;;;;;;;13.71;100.00;99689.91;5055706;28;20493;-59
2022/11/09 02:14:26;;;;;;;0.70;0.60;;;;;;;13.75;100.00;99682.59;5061518;28;20455;-59
2022/11/09 02:16:53;;;;;;;0.50;0.47;;;;;;;13.76;100.00;99692.34;5062698;28;20519;-59
2022/11/09 02:19:19;;;;;;;0.50;0.50;;;;;;;13.61;100.00;99697.53;5057168;28;20943;-59
2022/11/09 02:21:46;;;;;;;0.50;0.40;;;;;;;13.77;100.00;99694.94;5067652;28;20449;-59
2022/11/09 02:24:12;;;;;;;0.50;0.47;;;;;;;13.68;100.00;99691.84;5056239;28;20449;-59
2022/11/09 02:26:46;;;;;;;0.50;0.40;;;;;;;13.52;100.00;99684.63;5036715;28;20502;-59
2022/11/09 02:29:17;;;;;;;0.70;0.70;;;;;;;13.44;100.00;99684.16;5059695;28;20446;-59
2022/11/09 02:31:50;;;;;;;0.50;0.43;;;;;;;13.67;100.00;99684.78;5063818;28;20900;-59
2022/11/09 02:34:20;;;;;;;0.67;0.60;;;;;;;13.59;100.00;99671.84;5058097;28;20991;-59
2022/11/09 02:36:47;;;;;;;0.80;0.63;;;;;;;13.57;100.00;99663.06;5062200;28;20470;-59
2022/11/09 02:39:16;;;;;;;0.53;0.40;;;;;;;13.47;100.00;99648.44;5060850;28;20457;-59
2022/11/09 02:41:47;;;;;;;2.10;0.43;;;;;;;13.27;100.00;99631.59;5036511;28;20454;-59
2022/11/09 02:44:15;;;;;;;0.93;0.93;;;;;;;13.23;100.00;99618.50;5048843;28;20515;-59
2022/11/09 02:46:41;;;;;;;3.03;0.70;;;;;;;13.33;100.00;99617.97;5054942;28;20523;-59
2022/11/09 02:49:08;;;;;;;0.67;0.40;;;;;;;13.32;100.00;99618.91;5068942;28;20453;-59
2022/11/09 02:51:34;;;;;;;0.60;0.40;;;;;;;13.59;100.00;99634.44;5049064;28;20458;-59
2022/11/09 02:54:01;;;;;;;0.40;0.30;;;;;;;13.73;100.00;99642.63;5065529;28;20465;-59
2022/11/09 02:56:27;;;;;;;4.00;0.97;;;;;;;13.56;100.00;99639.94;5039204;28;20474;-59
2022/11/09 02:58:54;;;;;;;0.93;0.80;;;;;;;13.73;100.00;99639.09;5066073;28;20453;-59
2022/11/09 03:01:20;;;;;;;0.40;0.40;;;;;;;13.49;100.00;99651.88;5059304;28;20454;-59
2022/11/09 03:03:47;;;;;;;0.57;0.57;;;;;;;13.38;100.00;99656.88;5058681;28;20490;-59
2022/11/09 03:06:13;;;;;;;0.50;0.50;;;;;;;13.41;100.00;99683.44;5059165;28;21048;-59
2022/11/09 03:08:39;;;;;;;0.40;0.30;;;;;;;13.48;100.00;99696.41;5058874;28;20447;-59
2022/11/09 03:11:06;;;;;;;0.70;0.70;;;;;;;13.72;100.00;99696.13;5039348;28;20429;-59
2022/11/09 03:13:33;;;;;;;0.60;0.60;;;;;;;13.49;100.00;99695.47;5065845;28;20450;-59
2022/11/09 03:16:04;;;;;;;0.73;0.73;;;;;;;13.74;100.00;99700.44;5032684;28;20541;-59
2022/11/09 03:18:31;;;;;;;0.40;0.37;;;;;;;13.46;100.00;99698.28;5061111;28;20939;-59
2022/11/09 03:21:03;;;;;;;0.90;0.50;;;;;;;13.31;100.00;99699.91;5064528;28;20454;-59
2022/11/09 03:23:30;;;;;;;0.67;0.60;;;;;;;13.18;100.00;99696.13;5055278;28;20540;-59
2022/11/09 03:25:56;;;;;;;0.43;0.37;;;;;;;13.03;100.00;99694.16;5047937;28;20471;-59
2022/11/09 03:28:22;;;;;;;0.90;0.90;;;;;;;12.94;100.00;99703.47;5061462;28;20454;-59
2022/11/09 03:30:49;;;;;;;0.50;0.47;;;;;;;12.87;100.00;99706.47;5061188;28;20453;-59
2022/11/09 03:33:15;;;;;;;0.73;0.40;;;;;;;12.92;100.00;99712.47;5055999;28;20508;-59
2022/11/09 03:35:42;;;;;;;0.40;0.40;;;;;;;12.80;100.00;99707.72;5053020;28;20451;-59
2022/11/09 03:38:09;;;;;;;0.60;0.60;;;;;;;12.71;100.00;99712.53;5061537;28;20459;-59
2022/11/09 03:40:36;;;;;;;0.43;0.43;;;;;;;12.65;100.00;99715.50;5060529;28;20503;-59
2022/11/09 03:43:02;;;;;;;0.50;0.50;;;;;;;12.72;100.00;99726.75;5058002;28;20490;-59
2022/11/09 03:45:29;;;;;;;0.50;0.47;;;;;;;12.67;100.00;99732.28;5061705;28;20800;-59
2022/11/09 03:47:58;;;;;;;0.40;0.40;;;;;;;12.85;100.00;99727.91;5065021;28;20892;-59
2022/11/09 03:50:26;;;;;;;0.60;0.40;;;;;;;12.89;100.00;99744.66;5062295;28;20450;-59
2022/11/09 03:52:53;;;;;;;0.53;0.50;;;;;;;12.85;100.00;99740.38;5058036;28;20454;-59
2022/11/09 03:55:20;;;;;;;0.73;0.73;;;;;;;12.99;100.00;99745.91;5060560;28;20883;-59
2022/11/09 03:57:46;;;;;;;0.70;0.70;;;;;;;13.11;100.00;99740.00;5056196;28;20465;-59
2022/11/09 04:00:16;;;;;;;0.40;0.40;;;;;;;13.03;100.00;99745.72;5071346;28;20458;-59
2022/11/09 04:02:42;;;;;;;0.70;0.40;;;;;;;12.98;100.00;99745.06;5061917;28;20549;-59
2022/11/09 04:05:09;;;;;;;6.60;1.47;;;;;;;12.92;100.00;99740.03;5055088;28;20450;-59
2022/11/09 04:07:37;;;;;;;5.50;0.50;;;;;;;12.98;100.00;99749.53;5057424;28;20527;-59
2022/11/09 04:10:04;;;;;;;0.40;0.30;;;;;;;13.01;100.00;99746.72;5059760;28;20451;-59
2022/11/09 04:12:31;;;;;;;0.70;0.60;;;;;;;13.00;100.00;99748.50;5056155;28;20507;-59
2022/11/09 04:14:57;;;;;;;0.50;0.30;;;;;;;12.83;100.00;99748.44;5059292;28;20924;-59
2022/11/09 04:17:24;;;;;;;0.70;0.63;;;;;;;12.85;100.00;99749.25;5059707;28;20471;-59
2022/11/09 04:19:50;;;;;;;0.50;0.40;;;;;;;12.89;100.00;99760.66;5055087;28;20500;-59
2022/11/09 04:22:16;;;;;;;0.53;0.40;;;;;;;12.80;100.00;99755.72;5052781;28;20454;-59
2022/11/09 04:24:43;;;;;;;7.10;0.50;;;;;;;12.94;100.00;99742.63;5056714;28;20450;-59
2022/11/09 04:27:09;;;;;;;0.50;0.50;;;;;;;13.05;100.00;99742.97;5051246;28;20470;-59
2022/11/09 04:29:36;;;;;;;0.50;0.50;;;;;;;12.97;100.00;99738.00;5063909;28;20930;-59
2022/11/09 04:32:02;;;;;;;1.30;0.90;;;;;;;13.19;100.00;99734.34;5040639;28;20944;-59
2022/11/09 04:34:28;;;;;;;1.77;1.67;;;;;;;12.87;100.00;99733.16;5051327;28;20872;-59
2022/11/09 04:36:55;;;;;;;1.20;1.13;;;;;;;12.91;100.00;99729.44;5056259;28;20896;-59
2022/11/09 04:39:21;;;;;;;1.50;1.37;;;;;;;13.07;100.00;99729.56;5058212;28;20508;-59
2022/11/09 04:41:47;;;;;;;0.80;0.63;;;;;;;13.09;100.00;99717.88;5064080;28;20458;-59
2022/11/09 04:44:14;;;;;;;0.67;0.63;;;;;;;13.17;100.00;99717.50;5050677;28;20490;-59
2022/11/09 04:46:41;;;;;;;1.57;0.50;;;;;;;13.17;100.00;99715.72;5063908;28;20532;-59
2022/11/09 04:49:07;;;;;;;0.60;0.30;;;;;;;13.39;100.00;99715.53;5063198;28;20449;-59
2022/11/09 04:51:34;;;;;;;0.50;0.40;;;;;;;13.39;100.00;99714.69;5050956;28;20528;-59
2022/11/09 04:54:00;;;;;;;0.90;0.80;;;;;;;13.46;100.00;99716.13;5057523;28;20499;-59
2022/11/09 04:56:27;;;;;;;0.73;0.60;;;;;;;13.53;100.00;99701.50;5044576;28;20480;-59
2022/11/09 04:58:53;;;;;;;0.50;0.40;;;;;;;13.51;100.00;99708.72;5043847;28;20882;-59
2022/11/09 05:01:19;;;;;;;0.53;0.40;;;;;;;13.55;100.00;99711.16;5064091;28;20450;-59
2022/11/09 05:03:46;;;;;;;0.50;0.40;;;;;;;13.54;100.00;99708.56;5063123;28;20897;-59
2022/11/09 05:06:30;;;;;;;0.50;0.50;;;;;;;13.52;100.00;99705.97;5063981;28;21062;-59
2022/11/09 05:09:04;;;;;;;0.40;0.30;;;;;;;13.78;100.00;99706.47;5063470;28;20472;-59
2022/11/09 05:11:32;;;;;;;0.60;0.50;;;;;;;13.74;100.00;99708.44;5049845;28;20480;-59
2022/11/09 05:13:59;;;;;;;0.80;0.60;;;;;;;13.77;100.00;99700.28;5063541;28;20457;-59
2022/11/09 05:16:27;;;;;;;0.40;0.30;;;;;;;13.67;100.00;99695.47;5059056;28;20572;-59
2022/11/09 05:18:54;;;;;;;0.93;0.40;;;;;;;13.58;100.00;99692.34;5052889;28;20805;-59
2022/11/09 05:21:20;;;;;;;1.30;0.83;;;;;;;13.60;100.00;99676.25;5058370;28;20453;-59
2022/11/09 05:23:58;;;;;;;0.60;0.40;;;;;;;13.76;100.00;99671.84;5036973;28;20469;-59
2022/11/09 05:26:31;;;;;;;0.60;0.40;;;;;;;13.88;100.00;99659.66;5048713;28;20437;-59
2022/11/09 05:28:59;;;;;;;0.57;0.40;;;;;;;13.76;100.00;99666.50;5056832;28;20457;-59
2022/11/09 05:31:26;;;;;;;0.53;0.40;;;;;;;13.78;100.00;99664.59;5056017;28;20455;-59
2022/11/09 05:33:53;;;;;;;4.63;0.40;;;;;;;13.77;100.00;99665.53;5061156;28;20901;-59
2022/11/09 05:36:21;;;;;;;0.40;0.30;;;;;;;13.99;100.00;99678.66;5063103;28;20558;-59
2022/11/09 05:38:48;;;;;;;6.47;0.53;;;;;;;13.96;100.00;99688.63;5058150;28;20457;-59
2022/11/09 05:41:15;;;;;;;0.50;0.50;;;;;;;13.98;100.00;99692.06;5053991;28;20504;-59
2022/11/09 05:43:45;;;;;;;0.97;0.50;;;;;;;13.88;100.00;99694.38;5058050;28;20547;-59
2022/11/09 05:46:13;;;;;;;0.40;0.30;;;;;;;13.79;100.00;99701.06;5056257;28;20978;-59
2022/11/09 05:48:41;;;;;;;0.60;0.40;;;;;;;13.91;100.00;99695.09;5060028;28;20447;-59
2022/11/09 05:51:10;;;;;;;0.70;0.70;;;;;;;13.73;100.00;99684.50;5052664;28;20450;-59
2022/11/09 05:53:37;;;;;;;1.67;1.13;;;;;;;13.81;100.00;99680.47;5050197;28;20451;-59
2022/11/09 05:56:11;;;;;;;0.60;0.53;;;;;;;13.68;100.00;99686.50;5058037;28;20985;-59
2022/11/09 05:58:38;;;;;;;1.03;0.97;;;;;;;13.67;100.00;99679.44;5040794;28;20426;-59
2022/11/09 06:01:06;;;;;;;0.40;0.30;;;;;;;13.69;100.00;99689.09;5053803;28;20457;-59
2022/11/09 06:03:33;;;;;;;0.50;0.50;;;;;;;13.68;100.00;99707.88;5069190;28;20926;-59
2022/11/09 06:06:01;;;;;;;1.43;0.77;;;;;;;13.71;100.00;99711.28;5055283;28;20527;-59
2022/11/09 06:08:34;;;;;;;0.47;0.33;;;;;;;13.75;100.00;99707.50;5042814;28;20450;-59
2022/11/09 06:11:03;;;;;;;0.50;0.40;;;;;;;13.81;100.00;99708.97;5054715;28;20519;-59
2022/11/09 06:13:30;;;;;;;0.40;0.30;;;;;;;13.76;100.00;99719.91;5055516;28;20513;-59
2022/11/09 06:15:59;;;;;;;0.60;0.60;;;;;;;13.74;100.00;99721.81;5062381;28;20475;-59
2022/11/09 06:18:28;;;;;;;2.40;0.50;;;;;;;13.70;100.00;99730.03;5062205;28;20829;-59
2022/11/09 06:20:56;;;;;;;1.17;0.70;;;;;;;13.74;100.00;99736.97;5055917;28;20454;-59
2022/11/09 06:23:24;;;;;;;0.60;0.50;;;;;;;13.77;100.00;99732.31;5055307;28;20569;-59
2022/11/09 06:26:11;;;;;;;2.73;2.40;;;;;;;13.69;100.00;99736.31;5054098;28;21001;-59
2022/11/09 06:28:41;;;;;;;3.50;0.83;;;;;;;13.87;100.00;99730.94;5066314;28;20508;-59
2022/11/09 06:31:11;;;;;;;0.47;0.40;;;;;;;13.76;100.00;99727.94;5063031;28;20516;-59
2022/11/09 06:33:38;;;;;;;0.77;0.50;;;;;;;13.69;100.00;99729.16;5066280;28;20446;-59
2022/11/09 06:36:04;;;;;;;0.60;0.43;;;;;;;13.69;100.00;99733.66;5065203;28;21019;-59
2022/11/09 06:38:31;;;;;;;0.40;0.40;;;;;;;13.66;100.00;99733.81;5058598;28;20453;-59
2022/11/09 06:40:58;;;;;;;0.50;0.40;;;;;;;13.59;100.00;99736.78;5059515;28;20458;-59
2022/11/09 06:43:25;;;;;;;0.70;0.70;;;;;;;13.62;100.00;99739.31;5065985;28;20490;-59
2022/11/09 06:45:52;;;;;;;0.50;0.50;;;;;;;13.63;100.00;99748.19;5065679;28;20504;-59
2022/11/09 06:48:19;;;;;;;0.60;0.60;;;;;;;13.58;100.00;99755.56;5039449;28;20462;-59
2022/11/09 06:50:46;;;;;;;1.50;1.40;;;;;;;13.49;100.00;99758.69;5064617;28;20510;-59
2022/11/09 06:53:14;;;;;;;2.50;0.57;;;;;;;13.50;100.00;99763.09;5050417;28;20817;-59
2022/11/09 06:55:40;;;;;;;0.90;0.60;;;;;;;13.43;100.00;99769.66;5058713;28;20508;-59
2022/11/09 06:58:15;;;;;;;1.40;0.53;;;;;;;13.35;100.00;99764.69;5064006;28;20507;-59
2022/11/09 07:00:43;;;;;;;0.60;0.53;;;;;;;13.34;100.00;99765.63;5065544;28;20979;-59
2022/11/09 07:03:14;;;;;;;1.13;1.03;;;;;;;13.42;100.00;99762.56;5060287;28;20495;-59
2022/11/09 07:05:41;;;;;;;1.33;0.80;;;;;;;13.42;100.00;99770.59;5058512;28;20479;-59
2022/11/09 07:08:08;;;;;;;2.00;0.80;;;;;;;13.41;100.00;99776.88;5062451;28;20454;-59
2022/11/09 07:10:35;;;;;;;0.60;0.60;;;;;;;13.35;100.00;99772.69;5064173;28;20509;-59
2022/11/09 07:13:04;;;;;;;1.20;0.80;;;;;;;13.48;100.00;99773.84;5061818;28;20450;-59
2022/11/09 07:15:31;;;;;;;0.50;0.40;;;;;;;13.45;100.00;99783.81;5058218;28;20459;-59
2022/11/09 07:18:00;;;;;;;3.03;1.20;;;;;;;13.42;100.00;99784.81;5061170;28;20451;-59
2022/11/09 07:20:27;;;;;;;7.37;1.40;;;;;;;13.49;100.00;99791.59;5065184;28;20454;-59
2022/11/09 07:22:53;;;;;;;0.80;0.60;;;;;;;13.48;100.00;99780.97;5045489;28;20451;-59
2022/11/09 07:25:20;;;;;;;0.63;0.57;;;;;;;13.50;100.00;99785.31;5061224;28;20939;-59
2022/11/09 07:27:47;;;;;;;2.70;0.93;;;;;;;13.56;100.00;99803.69;5060322;28;20901;-59
2022/11/09 07:30:14;;;;;;;0.60;0.57;;;;;;;13.66;100.00;99800.56;5065010;28;20504;-59
2022/11/09 07:32:40;;;;;;;0.70;0.63;;;;;;;13.66;100.00;99804.09;5063168;28;20503;-59
2022/11/09 07:35:27;;;;;;;0.60;0.40;;;;;;;13.69;100.00;99811.09;5046508;28;20938;-59
2022/11/09 07:37:58;;;;;;;7.83;1.20;;;;;;;13.79;100.00;99799.03;5057303;28;20449;-59
2022/11/09 07:40:26;;;;;;;0.60;0.60;;;;;;;14.00;100.00;99799.78;5062803;28;20432;-59
2022/11/09 07:42:57;;;;;;;0.80;0.60;;;;;;;13.97;100.00;99811.47;5064791;28;20457;-59
2022/11/09 07:45:23;;;;;;;0.80;0.50;;;;;;;14.08;100.00;99811.78;5060610;28;20806;-59
2022/11/09 07:47:54;;;;;;;1.20;0.60;;;;;;;13.99;100.00;99811.41;5057801;28;20474;-59
2022/11/09 07:50:21;;;;;;;0.40;0.30;;;;;;;13.99;100.00;99811.41;5061317;28;20458;-59
2022/11/09 07:52:47;;;;;;;0.40;0.30;;;;;;;14.13;100.00;99819.59;5055089;28;20963;-59
2022/11/09 07:55:14;;;;;;;0.83;0.40;;;;;;;14.18;100.00;99820.22;5061115;28;20943;-59
2022/11/09 07:57:43;;;;;;;0.73;0.47;;;;;;;14.19;100.00;99813.94;5057064;28;20962;-59
2022/11/09 08:00:10;;;;;;;0.67;0.40;;;;;;;14.20;100.00;99815.66;5060694;28;20457;-59
2022/11/09 08:02:37;;;;;;;0.70;0.60;;;;;;;14.16;100.00;99809.59;5064430;28;20920;-59
2022/11/09 08:05:03;;;;;;;0.40;0.30;;;;;;;14.21;100.00;99820.91;5062385;28;20501;-59
2022/11/09 08:07:32;;;;;;;0.40;0.30;;;;;;;14.28;100.00;99826.84;5066514;28;20540;-59
2022/11/09 08:09:58;;;;;;;0.40;0.30;;;;;;;14.21;100.00;99830.75;5062165;28;20458;-59
2022/11/09 08:12:24;;;;;;;0.40;0.30;;;;;;;14.12;100.00;99834.78;5056939;28;20514;-59
2022/11/09 08:14:51;;;;;;;0.70;0.40;;;;;;;14.29;100.00;99838.38;5059196;28;20838;-59
2022/11/09 08:17:17;;;;;;;1.43;0.50;;;;;;;14.30;100.00;99837.44;5064125;28;20545;-59
2022/11/09 08:19:43;;;;;;;0.50;0.30;;;;;;;14.22;100.00;99844.03;5061896;28;20454;-59
2022/11/09 08:22:10;;;;;;;0.50;0.40;;;;;;;14.41;100.00;99843.13;5051403;28;20447;-59
2022/11/09 08:24:36;;;;;;;2.60;1.83;;;;;;;14.49;100.00;99836.44;5048960;28;20491;-59
2022/11/09 08:27:03;;;;;;;0.87;0.63;;;;;;;14.60;100.00;99845.72;5055380;28;20469;-59
2022/11/09 08:29:29;;;;;;;0.63;0.63;;;;;;;14.66;100.00;99843.56;5059176;28;20501;-59
2022/11/09 08:31:55;;;;;;;1.10;1.00;;;;;;;14.71;100.00;99841.53;5065853;28;20799;-59
2022/11/09 08:34:22;;;;;;;0.60;0.47;;;;;;;14.86;100.00;99841.69;5059398;28;20458;-59
2022/11/09 08:36:49;;;;;;;0.50;0.40;;;;;;;14.90;100.00;99833.38;5063979;28;21332;-59
2022/11/09 08:39:15;;;;;;;0.60;0.47;;;;;;;14.90;100.00;99827.19;5061389;28;20511;-59
2022/11/09 08:41:41;;;;;;;6.73;0.60;;;;;;;14.93;100.00;99832.34;5056936;28;20453;-59
2022/11/09 08:44:08;;;;;;;1.30;1.00;;;;;;;14.93;100.00;99835.91;5058441;28;20546;-59
2022/11/09 08:46:34;;;;;;;0.67;0.40;;;;;;;14.94;100.00;99834.97;5063168;28;20987;-59
2022/11/09 08:49:06;;;;;;;3.60;0.77;;;;;;;15.00;100.00;99831.97;5062949;28;20430;-59
2022/11/09 08:51:33;;;;;;;0.50;0.40;;;;;;;15.06;100.00;99838.78;5056450;28;20603;-59
2022/11/09 08:53:59;;;;;;;0.50;0.30;;;;;;;15.10;100.00;99832.34;5046687;28;20459;-59
2022/11/09 08:56:25;;;;;;;0.57;0.40;;;;;;;14.96;100.00;99835.75;5063369;28;20474;-59
2022/11/09 08:58:52;;;;;;;0.40;0.37;;;;;;;15.11;100.00;99850.13;5050122;28;20454;-59
2022/11/09 09:01:18;;;;;;;1.53;0.40;;;;;;;15.21;100.00;99843.28;5063306;28;20512;-59
2022/11/09 09:03:45;;;;;;;0.60;0.40;;;;;;;15.30;100.00;99853.50;5062379;28;20464;-60
2022/11/09 09:06:12;;;;;;;0.37;0.30;;;;;;;15.49;100.00;99866.78;5056227;28;20994;-60
2022/11/09 09:08:38;;;;;;;0.50;0.40;;;;;;;15.48;100.00;99862.31;5056613;28;20849;-60
2022/11/09 09:11:05;;;;;;;0.73;0.50;;;;;;;15.41;100.00;99861.81;5062878;28;20532;-60
2022/11/09 09:13:32;;;;;;;1.90;0.60;;;;;;;15.35;100.00;99856.81;5063024;28;20454;-60
2022/11/09 09:16:08;;;;;;;0.67;0.37;;;;;;;15.42;100.00;99854.66;5056047;28;20559;-60
2022/11/09 09:18:35;;;;;;;1.50;0.60;;;;;;;15.53;100.00;99862.09;5055919;28;20447;-60
2022/11/09 09:21:04;;;;;;;1.37;0.50;;;;;;;15.52;100.00;99863.03;5061419;28;20451;-60
2022/11/09 09:23:31;;;;;;;3.97;0.70;;;;;;;15.38;100.00;99858.47;5038724;28;20496;-60
2022/11/09 09:25:57;;;;;;;0.50;0.37;;;;;;;15.53;100.00;99862.09;5049562;28;20467;-60
2022/11/09 09:28:24;;;;;;;0.57;0.40;;;;;;;15.30;100.00;99863.34;5062680;28;20455;-60
2022/11/09 09:30:51;;;;;;;0.60;0.40;;;;;;;15.21;100.00;99872.75;5058899;28;21013;-60
2022/11/09 09:33:17;;;;;;;0.63;0.50;;;;;;;15.24;100.00;99861.03;5064077;28;20934;-60
2022/11/09 09:35:44;;;;;;;0.70;0.70;;;;;;;15.19;100.00;99877.31;5058749;28;20450;-60
2022/11/09 09:38:10;;;;;;;0.97;0.77;;;;;;;15.43;100.00;99866.22;5055790;28;20531;-60
2022/11/09 09:40:47;;;;;;;5.60;1.57;;;;;;;15.29;100.00;99869.66;5059294;28;20716;-60
2022/11/09 09:43:24;;;;;;;5.23;0.80;;;;;;;15.33;100.00;99863.19;5062608;28;20451;-59
2022/11/09 09:45:52;;;;;;;3.47;0.90;;;;;;;15.35;100.00;99870.22;5061922;28;20481;-60
2022/11/09 09:48:25;;;;;;;0.60;0.47;;;;;;;15.21;100.00;99875.41;5042409;28;20428;-60
2022/11/09 09:50:53;;;;;;;11.73;0.70;;;;;;;15.28;100.00;99881.31;5055581;28;20455;-60
2022/11/09 09:53:39;;;;;;;2.63;1.07;;;;;;;15.54;100.00;99875.41;5052263;28;20441;-60
2022/11/09 09:56:29;;;;;;;5.70;0.70;;;;;;;15.29;100.00;99878.56;5061204;28;20524;-60
2022/11/09 09:59:03;;;;;;;0.90;0.60;;;;;;;15.34;100.00;99875.63;5062643;28;20427;-60
2022/11/09 10:01:37;;;;;;;0.47;0.37;;;;;;;15.37;100.00;99875.47;5057179;28;20445;-59
2022/11/09 10:04:30;;;;;;;1.53;0.67;;;;;;;15.38;100.00;99877.22;5055436;28;20461;-59
2022/11/09 10:07:11;;;;;;;0.60;0.40;;;;;;;15.63;100.00;99882.97;5055292;28;20561;-60
2022/11/09 10:10:08;;;;;;;0.40;0.30;;;;;;;15.87;100.00;99885.19;5045735;28;20504;-60
2022/11/09 10:13:20;;;;;;;0.80;0.80;;;;;;;15.98;100.00;99899.72;5055288;28;20519;-60
2022/11/09 10:16:10;;;;;;;1.77;0.57;;;;;;;16.10;100.00;99894.63;5055672;28;20420;-60
2022/11/09 10:19:01;;;;;;;0.77;0.60;;;;;;;16.08;100.00;99894.72;5055402;28;20447;-60
2022/11/09 10:21:51;;;;;;;0.90;0.90;;;;;;;16.18;100.00;99881.63;5056307;28;20454;-60
2022/11/09 10:24:23;;;;;;;0.70;0.70;;;;;;;16.20;100.00;99901.19;5045320;28;20542;-60
2022/11/09 10:26:58;;;;;;;0.40;0.33;;;;;;;16.38;100.00;99897.41;5051792;28;21352;-60
2022/11/09 10:29:38;;;;;;;1.47;0.60;;;;;;;16.36;100.00;99898.47;5057714;28;20450;-60
2022/11/09 10:32:14;;;;;;;1.07;0.50;;;;;;;16.43;100.00;99887.25;5065609;28;20458;-60
2022/11/09 10:35:00;;;;;;;0.50;0.40;;;;;;;16.25;100.00;99899.94;5055085;28;20839;-60
2022/11/09 10:37:41;;;;;;;0.90;0.40;;;;;;;16.42;100.00;99898.09;5058379;28;20462;-60
2022/11/09 10:40:07;;;;;;;1.70;0.70;;;;;;;16.36;100.00;99899.34;5061662;28;20504;-60
2022/11/09 10:42:34;;;;;;;0.60;0.40;;;;;;;16.57;100.00;99897.19;5060516;28;20457;-60
2022/11/09 10:45:11;;;;;;;0.60;0.60;;;;;;;16.68;100.00;99899.25;5055053;28;20990;-60
2022/11/09 10:47:49;;;;;;;0.80;0.80;;;;;;;16.54;100.00;99908.09;5054742;28;20478;-60
2022/11/09 10:50:28;;;;;;;4.57;0.97;;;;;;;16.58;100.00;99904.28;5059443;28;20455;-60
2022/11/09 10:53:19;;;;;;;1.37;0.90;;;;;;;16.45;100.00;99903.31;5052207;28;20440;-60
2022/11/09 10:55:53;;;;;;;1.17;0.60;;;;;;;16.56;100.00;99914.25;5061901;28;20575;-60
2022/11/09 10:58:34;;;;;;;0.60;0.30;;;;;;;16.53;100.00;99906.38;5057315;28;20842;-60
2022/11/09 11:01:21;;;;;;;2.57;1.37;;;;;;;16.65;99.67;99902.09;5054834;28;20452;-60
2022/11/09 11:03:50;;;;;;;0.77;0.50;;;;;;;16.55;100.00;99910.69;5054918;28;21023;-60
2022/11/09 11:06:20;;;;;;;1.03;0.40;;;;;;;16.39;100.00;99906.31;5060597;28;20474;-60
2022/11/09 11:08:49;;;;;;;1.70;0.50;;;;;;;16.64;100.00;99895.88;5061475;28;20424;-60
2022/11/09 11:11:29;;;;;;;3.20;0.63;;;;;;;16.72;99.22;99903.47;5056827;28;20464;-60
2022/11/09 11:14:40;;;;;;;0.60;0.40;;;;;;;16.49;99.49;99899.47;5056565;28;21005;-60
2022/11/09 11:17:20;;;;;;;10.87;0.60;;;;;;;16.59;100.00;99881.88;5050419;28;20983;-60
2022/11/09 11:19:47;;;;;;;1.10;0.70;;;;;;;16.67;99.00;99884.97;5059360;28;20428;-60
2022/11/09 11:22:21;;;;;;;0.43;0.43;;;;;;;16.92;98.18;99879.00;5065027;28;20432;-60
2022/11/09 11:24:58;;;;;;;1.13;0.60;;;;;;;16.69;98.77;99880.38;5059911;28;20486;-60
2022/11/09 11:27:30;;;;;;;9.63;0.73;;;;;;;16.72;98.66;99880.22;5047965;28;20440;-60
2022/11/09 11:30:21;;;;;;;1.83;1.00;;;;;;;17.03;97.71;99872.97;5058169;28;20854;-60
2022/11/09 11:32:48;;;;;;;1.27;0.43;;;;;;;17.01;96.81;99878.44;5069744;28;20450;-60
2022/11/09 11:35:35;;;;;;;9.00;0.70;;;;;;;16.93;97.10;99879.84;5057921;28;20504;-60
2022/11/09 11:38:16;;;;;;;8.87;0.70;;;;;;;16.83;97.25;99882.22;5057671;28;20417;-60